createdAt,value
2022-09-10T00:01:43.634Z,99.90
2022-09-10T00:04:14.767Z,99.90
2022-09-10T00:06:43.827Z,99.90
2022-09-10T00:09:14.679Z,99.90
2022-09-10T00:11:45.311Z,99.90
2022-09-10T00:14:16.017Z,99.90
2022-09-10T00:16:44.918Z,99.90
2022-09-10T00:19:14.719Z,99.90
2022-09-10T00:21:44.369Z,99.90
2022-09-10T00:24:14.358Z,99.90
2022-09-10T00:26:45.727Z,99.90
2022-09-10T00:29:15.891Z,99.90
2022-09-10T00:31:45.062Z,99.90
2022-09-10T00:34:14.759Z,99.90
2022-09-10T00:36:44.492Z,99.90
2022-09-10T00:39:15.783Z,99.90
2022-09-10T00:41:45.874Z,99.90
2022-09-10T00:44:51.816Z,99.90
2022-09-10T00:47:23.464Z,99.90
2022-09-10T00:49:54.426Z,99.90
2022-09-10T00:52:22.946Z,99.90
2022-09-10T00:54:53.301Z,99.90
2022-09-10T00:57:23.639Z,99.90
2022-09-10T00:59:55.111Z,99.90
2022-09-10T01:02:23.724Z,99.90
2022-09-10T01:04:52.714Z,99.90
2022-09-10T01:07:22.957Z,99.90
2022-09-10T01:09:53.009Z,99.90
2022-09-10T01:12:36.099Z,99.90
2022-09-10T01:15:15.815Z,99.90
2022-09-10T01:17:55.249Z,99.90
2022-09-10T01:20:51.224Z,99.90
2022-09-10T01:24:01.216Z,99.90
2022-09-10T01:26:45.529Z,99.90
2022-09-10T01:29:20.007Z,99.90
2022-09-10T01:31:51.825Z,99.90
2022-09-10T01:34:25.947Z,99.90
2022-09-10T01:36:57.246Z,99.90
2022-09-10T01:39:26.132Z,99.90
2022-09-10T01:41:55.104Z,99.90
2022-09-10T01:44:46.082Z,99.90
2022-09-10T01:47:21.238Z,99.90
2022-09-10T01:50:13.286Z,99.90
2022-09-10T01:52:48.436Z,99.90
2022-09-10T01:55:27.299Z,99.90
2022-09-10T01:58:00.923Z,99.90
2022-09-10T02:00:33.355Z,99.90
2022-09-10T02:03:06.579Z,99.90
2022-09-10T02:05:37.505Z,99.90
2022-09-10T02:08:11.262Z,99.90
2022-09-10T02:10:53.937Z,99.90
2022-09-10T02:13:23.301Z,99.90
2022-09-10T02:15:53.371Z,99.90
2022-09-10T02:18:22.572Z,99.90
2022-09-10T02:20:52.978Z,99.90
2022-09-10T02:23:26.063Z,99.90
2022-09-10T02:25:54.631Z,99.90
2022-09-10T02:28:23.060Z,99.90
2022-09-10T02:30:52.960Z,99.90
2022-09-10T02:33:21.424Z,99.90
2022-09-10T02:35:49.946Z,99.90
2022-09-10T02:38:18.457Z,99.90
2022-09-10T02:40:49.046Z,99.90
2022-09-10T02:43:18.359Z,99.90
2022-09-10T02:45:46.920Z,99.90
2022-09-10T02:48:18.305Z,99.90
2022-09-10T02:50:47.098Z,99.90
2022-09-10T02:53:15.511Z,99.90
2022-09-10T02:55:46.208Z,99.90
2022-09-10T02:58:15.034Z,99.90
2022-09-10T03:00:43.901Z,99.90
2022-09-10T03:03:12.894Z,99.90
2022-09-10T03:05:43.389Z,99.90
2022-09-10T03:08:12.192Z,99.90
2022-09-10T03:10:40.660Z,99.90
2022-09-10T03:13:09.070Z,99.90
2022-09-10T03:15:38.254Z,99.90
2022-09-10T03:18:06.970Z,99.90
2022-09-10T03:20:36.571Z,99.90
2022-09-10T03:23:06.963Z,99.90
2022-09-10T03:25:35.535Z,99.90
2022-09-10T03:28:04.195Z,99.90
2022-09-10T03:30:33.116Z,99.90
2022-09-10T03:33:01.824Z,99.90
2022-09-10T03:35:30.287Z,99.90
2022-09-10T03:37:58.724Z,99.90
2022-09-10T03:40:29.675Z,99.90
2022-09-10T03:42:58.174Z,99.90
2022-09-10T03:45:27.033Z,99.90
2022-09-10T03:47:55.617Z,99.90
2022-09-10T03:50:24.184Z,99.90
2022-09-10T03:52:52.627Z,99.90
2022-09-10T03:55:22.195Z,99.90
2022-09-10T03:57:52.162Z,99.90
2022-09-10T04:00:21.082Z,99.90
2022-09-10T04:02:49.528Z,99.90
2022-09-10T04:05:19.117Z,99.90
2022-09-10T04:07:47.562Z,99.90
2022-09-10T04:10:16.051Z,99.90
2022-09-10T04:12:45.799Z,99.90
2022-09-10T04:15:15.852Z,99.90
2022-09-10T04:17:44.407Z,99.90
2022-09-10T04:20:13.004Z,99.90
2022-09-10T04:22:41.394Z,99.90
2022-09-10T04:25:10.751Z,99.90
2022-09-10T04:27:39.379Z,99.90
2022-09-10T04:30:09.208Z,99.90
2022-09-10T04:32:39.322Z,99.90
2022-09-10T04:35:08.741Z,99.90
2022-09-10T04:37:37.198Z,99.90
2022-09-10T04:40:06.425Z,99.90
2022-09-10T04:42:34.939Z,99.90
2022-09-10T04:45:03.503Z,99.90
2022-09-10T04:47:32.162Z,99.90
2022-09-10T04:50:02.047Z,99.90
2022-09-10T04:52:30.510Z,99.90
2022-09-10T04:54:59.809Z,99.90
2022-09-10T04:57:28.969Z,99.90
2022-09-10T04:59:57.366Z,99.90
2022-09-10T05:02:26.267Z,99.90
2022-09-10T05:04:54.857Z,99.90
2022-09-10T05:07:24.988Z,99.90
2022-09-10T05:09:53.832Z,99.90
2022-09-10T05:12:24.279Z,99.90
2022-09-10T05:14:56.253Z,99.90
2022-09-10T05:17:25.033Z,99.90
2022-09-10T05:19:53.969Z,99.90
2022-09-10T05:22:28.518Z,99.90
2022-09-10T05:25:03.069Z,99.90
2022-09-10T05:27:31.988Z,99.90
2022-09-10T05:30:02.121Z,99.90
2022-09-10T05:32:33.038Z,99.90
2022-09-10T05:35:05.201Z,99.90
2022-09-10T05:37:35.088Z,99.90
2022-09-10T05:40:04.597Z,99.90
2022-09-10T05:42:33.234Z,99.90
2022-09-10T05:45:05.088Z,99.90
2022-09-10T05:47:34.774Z,99.90
2022-09-10T05:50:03.595Z,99.90
2022-09-10T05:52:32.934Z,99.90
2022-09-10T05:55:03.105Z,99.90
2022-09-10T05:57:32.027Z,99.60
2022-09-10T06:00:01.271Z,99.80
2022-09-10T06:02:29.917Z,99.60
2022-09-10T06:05:01.021Z,99.90
2022-09-10T06:07:32.170Z,99.80
2022-09-10T06:10:02.411Z,99.90
2022-09-10T06:12:30.850Z,99.90
2022-09-10T06:14:59.337Z,99.70
2022-09-10T06:17:27.759Z,99.70
2022-09-10T06:19:56.240Z,99.60
2022-09-10T06:22:24.802Z,99.40
2022-09-10T06:24:53.778Z,99.50
2022-09-10T06:27:24.242Z,99.90
2022-09-10T06:29:52.692Z,99.40
2022-09-10T06:32:21.535Z,99.10
2022-09-10T06:34:49.991Z,98.60
2022-09-10T06:37:18.659Z,99.20
2022-09-10T06:39:47.263Z,98.80
2022-09-10T06:42:15.658Z,97.70
2022-09-10T06:44:45.494Z,97.00
2022-09-10T06:50:02.372Z,96.90
2022-09-10T06:52:30.826Z,95.90
2022-09-10T06:54:59.295Z,95.30
2022-09-10T06:57:27.901Z,95.10
2022-09-10T06:59:58.784Z,94.90
2022-09-10T07:02:27.281Z,94.90
2022-09-10T07:04:55.746Z,95.10
2022-09-10T07:07:24.291Z,95.20
2022-09-10T07:09:55.107Z,95.70
2022-09-10T07:12:23.624Z,95.50
2022-09-10T07:14:52.796Z,95.40
2022-09-10T07:17:22.546Z,94.80
2022-09-10T07:19:50.995Z,94.80
2022-09-10T07:22:19.399Z,94.80
2022-09-10T07:24:50.306Z,95.90
2022-09-10T07:27:18.714Z,97.30
2022-09-10T07:29:47.460Z,98.40
2022-09-10T07:32:15.839Z,99.00
2022-09-10T07:34:46.653Z,99.30
2022-09-10T07:37:15.822Z,99.80
2022-09-10T07:39:44.371Z,99.90
2022-09-10T07:42:12.899Z,99.90
2022-09-10T07:44:41.318Z,99.90
2022-09-10T07:47:09.739Z,99.90
2022-09-10T07:49:38.961Z,99.90
2022-09-10T07:52:08.883Z,99.90
2022-09-10T07:54:37.285Z,99.90
2022-09-10T07:57:06.310Z,99.90
2022-09-10T07:59:34.792Z,99.90
2022-09-10T08:02:03.254Z,99.90
2022-09-10T08:04:36.477Z,99.90
2022-09-10T08:07:05.588Z,99.60
2022-09-10T08:09:35.351Z,99.90
2022-09-10T08:12:04.305Z,99.70
2022-09-10T08:14:32.751Z,99.40
2022-09-10T08:17:01.847Z,99.50
2022-09-10T08:19:30.322Z,99.10
2022-09-10T08:21:58.771Z,98.80
2022-09-10T08:24:28.207Z,97.10
2022-09-10T08:26:58.012Z,96.90
2022-09-10T08:29:26.455Z,97.50
2022-09-10T08:31:56.215Z,98.00
2022-09-10T08:34:26.273Z,95.20
2022-09-10T08:36:55.524Z,96.20
2022-09-10T08:39:24.193Z,97.00
2022-09-10T08:41:55.255Z,96.80
2022-09-10T08:44:33.111Z,95.70
2022-09-10T08:47:07.598Z,94.40
2022-09-10T08:49:39.413Z,91.80
2022-09-10T08:52:14.099Z,91.80
2022-09-10T08:54:46.595Z,88.60
2022-09-10T08:57:23.861Z,89.40
2022-09-10T08:59:54.007Z,92.30
2022-09-10T09:02:47.111Z,88.10
2022-09-10T09:05:17.177Z,90.40
2022-09-10T09:07:47.053Z,87.90
2022-09-10T09:10:30.232Z,88.50
2022-09-10T09:13:31.474Z,83.00
2022-09-10T09:16:10.872Z,81.50
2022-09-10T09:18:52.416Z,83.00
2022-09-10T09:21:28.786Z,86.90
2022-09-10T09:24:14.249Z,91.00
2022-09-10T09:26:43.526Z,88.30
2022-09-10T09:29:16.291Z,88.00
2022-09-10T09:31:48.842Z,89.20
2022-09-10T09:34:20.317Z,89.30
2022-09-10T09:36:51.675Z,89.20
2022-09-10T09:39:25.431Z,88.30
2022-09-10T09:42:00.619Z,88.30
2022-09-10T09:44:31.318Z,86.40
2022-09-10T09:47:01.116Z,87.30
2022-09-10T09:49:29.667Z,90.70
2022-09-10T09:51:58.786Z,89.60
2022-09-10T09:55:13.104Z,87.20
2022-09-10T09:57:20.711Z,89.00
2022-09-10T09:59:50.370Z,93.60
2022-09-10T10:02:21.786Z,93.10
2022-09-10T10:05:03.664Z,92.20
2022-09-10T10:07:33.708Z,90.50
2022-09-10T10:10:03.560Z,90.90
2022-09-10T10:12:33.168Z,90.70
2022-09-10T10:15:02.794Z,88.20
2022-09-10T10:17:38.029Z,90.00
2022-09-10T10:20:13.543Z,91.10
2022-09-10T10:22:42.792Z,90.60
2022-09-10T10:25:40.371Z,90.00
2022-09-10T10:28:25.162Z,89.70
2022-09-10T10:30:54.476Z,91.80
2022-09-10T10:33:30.721Z,88.50
2022-09-10T10:36:06.624Z,90.70
2022-09-10T10:38:36.085Z,91.20
2022-09-10T10:41:22.803Z,92.40
2022-09-10T10:43:57.827Z,90.40
2022-09-10T10:46:31.061Z,91.10
2022-09-10T10:49:06.482Z,91.30
2022-09-10T10:51:42.400Z,89.70
2022-09-10T10:54:29.290Z,89.40
2022-09-10T10:57:04.383Z,88.90
2022-09-10T10:59:45.286Z,89.70
2022-09-10T11:02:17.387Z,85.70
2022-09-10T11:04:48.780Z,89.10
2022-09-10T11:07:21.994Z,83.30
2022-09-10T11:09:53.876Z,88.40
2022-09-10T11:12:28.100Z,86.30
2022-09-10T11:15:00.451Z,82.70
2022-09-10T11:17:34.955Z,87.00
2022-09-10T11:20:27.898Z,83.00
2022-09-10T11:23:04.784Z,80.90
2022-09-10T11:25:36.295Z,83.50
2022-09-10T11:28:11.146Z,85.90
2022-09-10T11:30:41.110Z,84.00
2022-09-10T11:33:15.987Z,84.00
2022-09-10T11:35:54.166Z,82.70
2022-09-10T11:38:27.267Z,81.20
2022-09-10T11:41:04.561Z,88.10
2022-09-10T11:43:38.651Z,89.10
2022-09-10T11:46:11.175Z,89.50
2022-09-10T11:48:43.734Z,89.10
2022-09-10T11:51:18.705Z,85.50
2022-09-10T11:53:47.354Z,84.90
2022-09-10T11:56:29.852Z,83.30
2022-09-10T11:59:06.891Z,84.30
2022-09-10T12:02:02.756Z,84.30
2022-09-10T12:04:47.296Z,84.00
2022-09-10T12:07:36.360Z,83.70
2022-09-10T12:10:16.481Z,85.30
2022-09-10T12:12:49.159Z,86.60
2022-09-10T12:15:20.111Z,88.00
2022-09-10T12:17:52.254Z,88.10
2022-09-10T12:20:25.541Z,86.50
2022-09-10T12:22:57.075Z,87.60
2022-09-10T12:25:33.846Z,86.40
2022-09-10T12:28:05.488Z,84.20
2022-09-10T12:31:04.225Z,83.70
2022-09-10T12:34:14.567Z,84.30
2022-09-10T12:37:21.263Z,83.10
2022-09-10T12:40:29.882Z,83.90
2022-09-10T12:43:01.010Z,83.60
2022-09-10T12:46:03.742Z,83.60
2022-09-10T12:48:34.806Z,83.30
2022-09-10T12:51:09.901Z,84.90
2022-09-10T12:53:59.515Z,85.80
2022-09-10T12:56:54.123Z,86.70
2022-09-10T12:59:42.694Z,85.70
2022-09-10T13:02:21.728Z,87.00
2022-09-10T13:04:55.950Z,85.50
2022-09-10T13:07:27.945Z,85.50
2022-09-10T13:10:01.966Z,86.00
2022-09-10T13:12:32.785Z,86.40
2022-09-10T13:15:02.935Z,87.00
2022-09-10T13:17:39.300Z,86.40
2022-09-10T13:20:16.156Z,87.30
2022-09-10T13:23:04.266Z,87.70
2022-09-10T13:25:36.802Z,88.40
2022-09-10T13:28:45.252Z,89.60
2022-09-10T13:31:21.217Z,90.00
2022-09-10T13:34:14.685Z,89.60
2022-09-10T13:36:52.303Z,90.30
2022-09-10T13:39:35.326Z,91.00
2022-09-10T13:42:13.918Z,90.90
2022-09-10T13:45:13.512Z,91.50
2022-09-10T13:47:47.169Z,92.30
2022-09-10T13:50:19.446Z,93.60
2022-09-10T13:52:50.320Z,96.80
2022-09-10T13:55:21.206Z,98.20
2022-09-10T13:57:51.439Z,99.90
2022-09-10T14:00:24.317Z,99.90
2022-09-10T14:02:54.484Z,99.90
2022-09-10T14:05:25.983Z,99.90
2022-09-10T14:07:56.206Z,99.90
2022-09-10T14:10:24.821Z,99.90
2022-09-10T14:12:54.094Z,99.90
2022-09-10T14:15:27.804Z,99.90
2022-09-10T14:18:01.120Z,99.90
2022-09-10T14:20:34.821Z,99.90
2022-09-10T14:23:09.082Z,99.90
2022-09-10T14:25:39.735Z,99.90
2022-09-10T14:28:21.830Z,99.90
2022-09-10T14:30:52.597Z,99.90
2022-09-10T14:33:26.494Z,99.90
2022-09-10T14:35:58.137Z,99.90
2022-09-10T14:38:28.001Z,99.90
2022-09-10T14:40:58.803Z,99.90
2022-09-10T14:43:29.908Z,99.90
2022-09-10T14:46:00.807Z,99.90
2022-09-10T14:48:32.507Z,99.90
2022-09-10T14:51:11.016Z,99.90
2022-09-10T14:53:40.223Z,99.90
2022-09-10T14:56:22.328Z,99.90
2022-09-10T14:58:56.615Z,99.90
2022-09-10T15:01:26.832Z,99.90
2022-09-10T15:03:55.493Z,99.90
2022-09-10T15:06:26.342Z,99.90
2022-09-10T15:08:56.828Z,99.90
2022-09-10T15:11:26.992Z,99.90
2022-09-10T15:13:56.871Z,99.90
2022-09-10T15:16:26.711Z,99.90
2022-09-10T15:18:55.497Z,99.90
2022-09-10T15:21:23.957Z,99.90
2022-09-10T15:23:52.503Z,99.90
2022-09-10T15:26:20.937Z,99.90
2022-09-10T15:28:49.498Z,99.90
2022-09-10T15:31:19.376Z,99.90
2022-09-10T15:33:49.716Z,99.90
2022-09-10T15:36:19.390Z,99.90
2022-09-10T15:38:48.767Z,99.90
2022-09-10T15:41:22.166Z,99.90
2022-09-10T15:43:50.699Z,99.90
2022-09-10T15:46:24.324Z,99.90
2022-09-10T15:48:55.798Z,99.90
2022-09-10T15:51:25.684Z,99.90
2022-09-10T15:53:56.883Z,99.90
2022-09-10T15:56:27.253Z,99.90
2022-09-10T15:58:57.695Z,99.90
2022-09-10T16:01:31.139Z,99.90
2022-09-10T16:04:02.815Z,99.90
2022-09-10T16:06:34.352Z,99.90
2022-09-10T16:09:06.682Z,99.90
2022-09-10T16:11:37.924Z,99.90
2022-09-10T16:14:08.878Z,99.90
2022-09-10T16:16:38.077Z,99.90
2022-09-10T16:19:11.564Z,99.90
2022-09-10T16:21:40.817Z,99.90
2022-09-10T16:24:10.764Z,99.90
2022-09-10T16:26:41.141Z,99.90
2022-09-10T16:29:15.241Z,99.90
2022-09-10T16:31:45.566Z,99.90
2022-09-10T16:34:18.353Z,99.90
2022-09-10T16:36:48.850Z,99.90
2022-09-10T16:39:18.395Z,99.90
2022-09-10T16:41:48.416Z,99.90
2022-09-10T16:44:18.365Z,99.90
2022-09-10T16:46:47.637Z,99.90
2022-09-10T16:49:18.936Z,99.90
2022-09-10T16:51:49.048Z,99.90
2022-09-10T16:54:20.116Z,99.90
2022-09-10T16:56:50.480Z,99.90
2022-09-10T16:59:24.310Z,99.90
2022-09-10T17:01:55.172Z,99.90
2022-09-10T17:04:29.362Z,99.90
2022-09-10T17:06:58.977Z,99.90
2022-09-10T17:09:30.968Z,99.90
2022-09-10T17:11:59.756Z,99.90
2022-09-10T17:14:28.850Z,99.90
2022-09-10T17:16:58.797Z,99.90
2022-09-10T17:19:32.448Z,99.90
2022-09-10T17:22:03.205Z,99.90
2022-09-10T17:24:31.690Z,99.90
2022-09-10T17:27:03.028Z,99.90
2022-09-10T17:29:33.087Z,99.90
2022-09-10T17:32:01.907Z,99.90
2022-09-10T17:34:31.920Z,99.90
2022-09-10T17:37:00.380Z,99.90
2022-09-10T17:39:29.339Z,99.90
2022-09-10T17:41:58.886Z,99.90
2022-09-10T17:44:27.585Z,99.90
2022-09-10T17:46:56.231Z,99.90
2022-09-10T17:49:25.046Z,99.90
2022-09-10T17:51:55.182Z,99.90
2022-09-10T17:54:24.289Z,99.90
2022-09-10T17:56:52.703Z,99.90
2022-09-10T17:59:22.349Z,99.90
2022-09-10T18:01:52.234Z,99.90
2022-09-10T18:04:23.761Z,99.90
2022-09-10T18:06:52.793Z,99.90
2022-09-10T18:09:23.619Z,99.90
2022-09-10T18:11:52.551Z,99.90
2022-09-10T18:14:23.072Z,99.90
2022-09-10T18:16:52.443Z,99.90
2022-09-10T18:19:22.027Z,99.90
2022-09-10T18:21:51.115Z,99.90
2022-09-10T18:24:24.044Z,99.90
2022-09-10T18:26:54.907Z,99.90
2022-09-10T18:29:25.292Z,99.90
2022-09-10T18:31:55.756Z,99.90
2022-09-10T18:34:27.881Z,99.90
2022-09-10T18:37:00.505Z,99.90
2022-09-10T18:39:30.399Z,99.90
2022-09-10T18:42:01.022Z,99.90
2022-09-10T18:44:31.379Z,99.90
2022-09-10T18:46:59.807Z,99.90
2022-09-10T18:49:28.435Z,99.90
2022-09-10T18:51:57.952Z,99.90
2022-09-10T18:54:28.770Z,99.90
2022-09-10T18:56:59.178Z,99.90
2022-09-10T18:59:27.897Z,99.90
2022-09-10T19:01:56.883Z,99.90
2022-09-10T19:04:26.857Z,99.90
2022-09-10T19:06:56.143Z,99.90
2022-09-10T19:09:26.229Z,99.90
2022-09-10T19:11:56.191Z,99.90
2022-09-10T19:14:29.884Z,99.90
2022-09-10T19:17:08.231Z,99.90
2022-09-10T19:19:40.486Z,99.90
2022-09-10T19:22:10.723Z,99.90
2022-09-10T19:24:54.535Z,99.90
2022-09-10T19:27:23.982Z,99.90
2022-09-10T19:30:07.859Z,99.90
2022-09-10T19:32:38.000Z,99.90
2022-09-10T19:35:11.355Z,99.90
2022-09-10T19:37:50.200Z,99.90
2022-09-10T19:40:25.470Z,99.90
2022-09-10T19:42:54.526Z,99.90
2022-09-10T19:45:27.199Z,99.90
2022-09-10T19:47:55.879Z,99.90
2022-09-10T19:50:24.333Z,99.90
2022-09-10T19:52:54.775Z,99.90
2022-09-10T19:55:23.777Z,99.90
2022-09-10T19:57:52.227Z,99.90
2022-09-10T20:00:45.372Z,99.90
2022-09-10T20:03:11.067Z,99.90
2022-09-10T20:05:39.600Z,99.90
2022-09-10T20:08:09.698Z,99.90
2022-09-10T20:10:38.255Z,99.90
2022-09-10T20:13:08.328Z,99.90
2022-09-10T20:15:44.845Z,99.90
2022-09-10T20:18:15.316Z,99.90
2022-09-10T20:20:43.847Z,99.90
2022-09-10T20:23:12.330Z,99.90
2022-09-10T20:25:40.805Z,99.90
2022-09-10T20:28:09.382Z,99.90
2022-09-10T20:30:39.687Z,99.90
2022-09-10T20:33:08.370Z,99.90
2022-09-10T20:35:38.144Z,99.90
2022-09-10T20:38:06.579Z,99.90
2022-09-10T20:40:36.275Z,99.90
2022-09-10T20:43:04.862Z,99.90
2022-09-10T20:45:33.230Z,99.90
2022-09-10T20:48:02.041Z,99.90
2022-09-10T20:50:30.474Z,99.90
2022-09-10T20:53:00.278Z,99.90
2022-09-10T20:55:28.705Z,99.90
2022-09-10T20:57:57.127Z,99.90
2022-09-10T21:00:25.571Z,99.90
2022-09-10T21:02:53.972Z,99.90
2022-09-10T21:05:22.439Z,99.90
2022-09-10T21:07:51.250Z,99.90
2022-09-10T21:10:21.092Z,99.90
2022-09-10T21:12:49.562Z,99.90
2022-09-10T21:15:18.031Z,99.90
2022-09-10T21:17:48.398Z,99.90
2022-09-10T21:20:16.961Z,99.90
2022-09-10T21:22:45.393Z,99.90
2022-09-10T21:25:14.262Z,99.90
2022-09-10T21:27:44.127Z,99.90
2022-09-10T21:30:13.383Z,99.90
2022-09-10T21:32:41.903Z,99.90
2022-09-10T21:35:11.170Z,99.90
2022-09-10T21:37:40.349Z,99.90
2022-09-10T21:40:10.528Z,99.90
2022-09-10T21:42:38.966Z,99.90
2022-09-10T21:45:10.675Z,99.90
2022-09-10T21:47:39.356Z,99.90
2022-09-10T21:50:08.806Z,99.90
2022-09-10T21:52:52.402Z,99.90
2022-09-10T21:55:20.982Z,99.90
2022-09-10T21:57:49.615Z,99.90
2022-09-10T22:00:20.208Z,99.90
2022-09-10T22:02:49.564Z,99.90
2022-09-10T22:05:18.606Z,99.90
2022-09-10T22:07:47.435Z,99.90
2022-09-10T22:10:17.187Z,99.90
2022-09-10T22:12:46.373Z,99.90
2022-09-10T22:15:14.980Z,99.90
2022-09-10T22:17:44.942Z,99.90
2022-09-10T22:20:13.462Z,99.90
2022-09-10T22:22:41.965Z,99.90
2022-09-10T22:25:11.035Z,99.90
2022-09-10T22:27:40.060Z,99.90
2022-09-10T22:30:10.154Z,99.90
2022-09-10T22:32:39.671Z,99.90
2022-09-10T22:35:10.360Z,99.90
2022-09-10T22:37:38.900Z,99.90
2022-09-10T22:40:08.322Z,99.90
2022-09-10T22:42:36.858Z,99.90
2022-09-10T22:45:06.233Z,99.90
2022-09-10T22:47:34.803Z,99.90
2022-09-10T22:50:03.223Z,99.90
2022-09-10T22:52:34.221Z,99.90
2022-09-10T22:55:03.198Z,99.90
2022-09-10T22:57:31.711Z,99.90
2022-09-10T23:00:00.217Z,99.90
2022-09-10T23:02:28.884Z,99.90
2022-09-10T23:04:57.370Z,99.90
2022-09-10T23:07:25.878Z,99.90
2022-09-10T23:09:56.239Z,99.90
2022-09-10T23:12:25.531Z,99.90
2022-09-10T23:14:54.007Z,99.90
2022-09-10T23:17:22.797Z,99.90
2022-09-10T23:19:51.312Z,99.90
2022-09-10T23:22:19.776Z,99.90
2022-09-10T23:24:48.175Z,99.90
2022-09-10T23:27:18.303Z,99.90
2022-09-10T23:29:46.766Z,99.90
2022-09-10T23:32:15.279Z,99.90
2022-09-10T23:34:43.707Z,99.90
2022-09-10T23:37:12.136Z,99.90
2022-09-10T23:39:40.693Z,99.90
2022-09-10T23:42:09.485Z,99.90
2022-09-10T23:44:39.426Z,99.90
2022-09-10T23:47:07.935Z,99.90
2022-09-10T23:49:36.437Z,99.90
2022-09-10T23:52:04.918Z,99.90
2022-09-10T23:54:34.027Z,99.90
2022-09-10T23:57:03.266Z,99.90
2022-09-10T23:59:31.760Z,99.90
